Time;durP1;ratioP1;P1;durP2;ratioP2;P2;SDS_P1;SDS_P2;PMS_P1;PMS_P2;Temp;Humidity;BMP_temperature;BMP_pressure;BME280_temperature;BME280_humidity;BME280_pressure;Samples;Min_cycle;Max_cycle;Signal;HPM_P1;HPM_P2
2023/07/24 00:01:18;;;;;;;;;;;;;;;;;;4955312;28;19925;-73
2023/07/24 00:04:05;;;;;;;;;;;;;;;;;;4966600;28;19926;-76
2023/07/24 00:06:51;;;;;;;;;;;;;;;;;;4967984;28;20672;-73
2023/07/24 00:09:38;;;;;;;;;;;;;;;;;;4959477;28;19927;-75
2023/07/24 00:12:24;;;;;;;;;;;;;;;;;;4964848;28;19937;-74
2023/07/24 00:15:10;;;;;;;;;;;;;;;;;;4960771;28;19933;-75
2023/07/24 00:17:57;;;;;;;;;;;;;;;;;;4964041;28;19925;-75
2023/07/24 00:20:43;;;;;;;;;;;;;;;;;;4967984;28;19915;-75
2023/07/24 00:23:30;;;;;;;;;;;;;;;;;;4966519;28;20249;-74
2023/07/24 00:26:16;;;;;;;;;;;;;;;;;;4956231;28;19961;-74
2023/07/24 00:29:03;;;;;;;;;;;;;;;;;;4955063;28;19926;-74
2023/07/24 00:31:49;;;;;;;;;;;;;;;;;;4948781;28;19926;-76
2023/07/24 00:34:36;;;;;;;;;;;;;;;;;;4956081;28;19923;-74
2023/07/24 00:37:22;;;;;;;;;;;;;;;;;;4964431;28;19925;-75
2023/07/24 00:40:09;;;;;;;;;;;;;;;;;;4964844;28;20281;-76
2023/07/24 00:42:55;;;;;;;;;;;;;;;;;;4953816;28;19941;-75
2023/07/24 00:45:42;;;;;;;;;;;;;;;;;;4954147;28;19925;-75
2023/07/24 00:48:28;;;;;;;;;;;;;;;;;;4952166;28;19914;-76
2023/07/24 00:51:15;;;;;;;;;;;;;;;;;;4961961;28;19926;-75
2023/07/24 00:54:01;;;;;;;;;;;;;;;;;;4965835;28;20711;-74
2023/07/24 00:56:47;;;;;;;;;;;;;;;;;;4956027;28;19930;-76
2023/07/24 00:59:34;;;;;;;;;;;;;;;;;;4958977;28;19948;-75
2023/07/24 01:02:20;;;;;;;;;;;;;;;;;;4974336;28;20433;-74
2023/07/24 01:05:07;;;;;;;;;;;;;;;;;;4969547;28;19930;-75
2023/07/24 01:07:53;;;;;;;;;;;;;;;;;;4963114;28;19918;-75
2023/07/24 01:10:40;;;;;;;;;;;;;;;;;;4948894;28;19919;-75
2023/07/24 01:13:26;;;;;;;;;;;;;;;;;;4957973;28;19929;-75
2023/07/24 01:16:13;;;;;;;;;;;;;;;;;;4966714;28;20297;-74
2023/07/24 01:18:59;;;;;;;;;;;;;;;;;;4952831;28;19923;-75
2023/07/24 01:21:46;;;;;;;;;;;;;;;;;;4957283;28;19937;-75
2023/07/24 01:24:32;;;;;;;;;;;;;;;;;;4968631;28;19934;-74
2023/07/24 01:27:19;;;;;;;;;;;;;;;;;;4949838;28;19918;-75
2023/07/24 01:30:05;;;;;;;;;;;;;;;;;;4956080;28;20400;-74
2023/07/24 01:32:52;;;;;;;;;;;;;;;;;;4947837;28;19930;-74
2023/07/24 01:35:38;;;;;;;;;;;;;;;;;;4957086;28;19929;-76
2023/07/24 01:38:25;;;;;;;;;;;;;;;;;;4957596;28;19941;-74
2023/07/24 01:41:12;;;;;;;;;;;;;;;;;;4964229;28;19918;-73
2023/07/24 01:43:58;;;;;;;;;;;;;;;;;;4958673;28;19948;-76
2023/07/24 01:46:45;;;;;;;;;;;;;;;;;;4963225;28;19929;-73
2023/07/24 01:49:31;;;;;;;;;;;;;;;;;;4962282;28;19918;-75
2023/07/24 01:52:18;;;;;;;;;;;;;;;;;;4966855;28;20502;-75
2023/07/24 01:55:04;;;;;;;;;;;;;;;;;;4954820;28;19923;-74
2023/07/24 01:57:51;;;;;;;;;;;;;;;;;;4960334;28;19945;-75
2023/07/24 02:00:37;;;;;;;;;;;;;;;;;;4961867;28;19925;-74
2023/07/24 02:03:24;;;;;;;;;;;;;;;;;;4954539;28;20290;-75
2023/07/24 02:06:10;;;;;;;;;;;;;;;;;;4958582;28;19925;-75
2023/07/24 02:08:57;;;;;;;;;;;;;;;;;;4949584;28;19919;-75
2023/07/24 02:11:43;;;;;;;;;;;;;;;;;;4964471;28;19923;-75
2023/07/24 02:14:29;;;;;;;;;;;;;;;;;;4956286;28;20495;-75
2023/07/24 02:17:16;;;;;;;;;;;;;;;;;;4957770;28;19918;-73
2023/07/24 02:20:02;;;;;;;;;;;;;;;;;;4960375;28;19921;-74
2023/07/24 02:22:49;;;;;;;;;;;;;;;;;;4949295;28;19923;-73
2023/07/24 02:25:35;;;;;;;;;;;;;;;;;;4955489;28;19922;-74
2023/07/24 02:28:22;;;;;;;;;;;;;;;;;;4967705;28;20294;-74
2023/07/24 02:31:08;;;;;;;;;;;;;;;;;;4956967;28;19975;-74
2023/07/24 02:33:55;;;;;;;;;;;;;;;;;;4953479;28;20371;-74
2023/07/24 02:36:41;;;;;;;;;;;;;;;;;;4941940;28;19918;-74
2023/07/24 02:39:28;;;;;;;;;;;;;;;;;;4963867;28;19919;-74
2023/07/24 02:42:14;;;;;;;;;;;;;;;;;;4947792;28;19998;-74
2023/07/24 02:45:01;;;;;;;;;;;;;;;;;;4958679;28;19936;-74
2023/07/24 02:47:47;;;;;;;;;;;;;;;;;;4953589;28;19930;-75
2023/07/24 02:50:34;;;;;;;;;;;;;;;;;;4963573;28;19924;-75
2023/07/24 02:53:20;;;;;;;;;;;;;;;;;;4939429;28;19929;-74
2023/07/24 02:56:07;;;;;;;;;;;;;;;;;;4941934;28;20337;-74
2023/07/24 02:58:53;;;;;;;;;;;;;;;;;;4964957;28;19922;-73
2023/07/24 03:01:40;;;;;;;;;;;;;;;;;;4954838;28;20129;-74
2023/07/24 03:04:26;;;;;;;;;;;;;;;;;;4961651;28;19926;-74
2023/07/24 03:07:13;;;;;;;;;;;;;;;;;;4948447;28;19918;-74
2023/07/24 03:09:59;;;;;;;;;;;;;;;;;;4954304;28;19918;-74
2023/07/24 03:12:46;;;;;;;;;;;;;;;;;;4954665;28;19937;-78
2023/07/24 03:15:32;;;;;;;;;;;;;;;;;;4958756;28;20383;-74
2023/07/24 03:18:19;;;;;;;;;;;;;;;;;;4960374;28;20412;-74
2023/07/24 03:21:05;;;;;;;;;;;;;;;;;;4942533;28;20417;-74
2023/07/24 03:23:52;;;;;;;;;;;;;;;;;;4959594;28;19933;-73
2023/07/24 03:26:38;;;;;;;;;;;;;;;;;;4962340;28;19922;-74
2023/07/24 03:29:25;;;;;;;;;;;;;;;;;;4958471;28;19953;-74
2023/07/24 03:32:11;;;;;;;;;;;;;;;;;;4947705;28;19922;-75
2023/07/24 03:34:58;;;;;;;;;;;;;;;;;;4966508;28;20006;-74
2023/07/24 03:37:44;;;;;;;;;;;;;;;;;;4959567;28;20385;-74
2023/07/24 03:40:31;;;;;;;;;;;;;;;;;;4960004;28;19929;-75
2023/07/24 03:43:17;;;;;;;;;;;;;;;;;;4967781;28;20588;-75
2023/07/24 03:46:04;;;;;;;;;;;;;;;;;;4961510;28;19918;-75
2023/07/24 03:48:50;;;;;;;;;;;;;;;;;;4946908;28;19921;-75
2023/07/24 03:51:37;;;;;;;;;;;;;;;;;;4956142;28;20558;-76
2023/07/24 03:54:23;;;;;;;;;;;;;;;;;;4953422;28;19924;-75
2023/07/24 03:57:10;;;;;;;;;;;;;;;;;;4952916;28;19926;-74
2023/07/24 03:59:56;;;;;;;;;;;;;;;;;;4965607;28;19925;-75
2023/07/24 04:02:43;;;;;;;;;;;;;;;;;;4966770;28;19918;-75
2023/07/24 04:05:29;;;;;;;;;;;;;;;;;;4953983;28;19926;-75
2023/07/24 04:08:16;;;;;;;;;;;;;;;;;;4958987;28;20002;-75
2023/07/24 04:11:04;;;;;;;;;;;;;;;;;;4957014;28;19922;-74
2023/07/24 04:13:51;;;;;;;;;;;;;;;;;;4971724;28;19970;-73
2023/07/24 04:16:37;;;;;;;;;;;;;;;;;;4965532;28;19929;-74
2023/07/24 04:19:23;;;;;;;;;;;;;;;;;;4966939;28;19918;-75
2023/07/24 04:22:10;;;;;;;;;;;;;;;;;;4951939;28;19922;-75
2023/07/24 04:24:56;;;;;;;;;;;;;;;;;;4954246;28;20414;-74
2023/07/24 04:27:43;;;;;;;;;;;;;;;;;;4979916;28;19914;-76
2023/07/24 04:30:29;;;;;;;;;;;;;;;;;;4956155;28;19918;-75
2023/07/24 04:33:16;;;;;;;;;;;;;;;;;;4968325;28;20366;-74
2023/07/24 04:36:02;;;;;;;;;;;;;;;;;;4957586;28;19922;-76
2023/07/24 04:38:49;;;;;;;;;;;;;;;;;;4957283;28;22605;-73
2023/07/24 04:41:35;;;;;;;;;;;;;;;;;;4966193;28;20275;-74
2023/07/24 04:44:22;;;;;;;;;;;;;;;;;;4970020;28;19926;-74
2023/07/24 04:47:08;;;;;;;;;;;;;;;;;;4954349;28;19922;-75
2023/07/24 04:49:55;;;;;;;;;;;;;;;;;;4955497;28;19925;-74
2023/07/24 04:52:41;;;;;;;;;;;;;;;;;;4966714;28;19932;-75
2023/07/24 04:55:28;;;;;;;;;;;;;;;;;;4981366;28;20346;-75
2023/07/24 04:58:14;;;;;;;;;;;;;;;;;;4967280;28;19930;-75
2023/07/24 05:01:01;;;;;;;;;;;;;;;;;;4972753;28;19929;-74
2023/07/24 05:03:47;;;;;;;;;;;;;;;;;;4965271;28;19930;-73
2023/07/24 05:06:35;;;;;;;;;;;;;;;;;;4972188;28;19926;-75
2023/07/24 05:09:21;;;;;;;;;;;;;;;;;;4980174;28;19922;-74
2023/07/24 05:12:08;;;;;;;;;;;;;;;;;;4980654;28;19929;-74
2023/07/24 05:14:54;;;;;;;;;;;;;;;;;;4979167;28;19914;-73
2023/07/24 05:17:41;;;;;;;;;;;;;;;;;;4975372;28;19922;-74
2023/07/24 05:20:27;;;;;;;;;;;;;;;;;;4974001;28;19992;-73
2023/07/24 05:23:14;;;;;;;;;;;;;;;;;;4982665;28;19918;-74
2023/07/24 05:26:00;;;;;;;;;;;;;;;;;;4985458;28;19922;-75
2023/07/24 05:28:47;;;;;;;;;;;;;;;;;;4987963;28;19906;-75
2023/07/24 05:31:33;;;;;;;;;;;;;;;;;;4991791;28;19925;-75
2023/07/24 05:34:19;;;;;;;;;;;;;;;;;;4981094;28;19914;-75
2023/07/24 05:37:06;;;;;;;;;;;;;;;;;;4972360;28;19918;-76
2023/07/24 05:39:52;;;;;;;;;;;;;;;;;;4980408;28;19914;-75
2023/07/24 05:42:41;;;;;;;;;;;;;;;;;;4973791;28;19922;-76
2023/07/24 05:45:28;;;;;;;;;;;;;;;;;;4965563;28;19922;-76
2023/07/24 05:48:14;;;;;;;;;;;;;;;;;;4968084;28;20675;-75
2023/07/24 05:51:01;;;;;;;;;;;;;;;;;;4948806;28;19928;-76
2023/07/24 05:53:47;;;;;;;;;;;;;;;;;;4970913;28;20864;-75
2023/07/24 05:56:34;;;;;;;;;;;;;;;;;;4971073;28;19940;-75
2023/07/24 05:59:20;;;;;;;;;;;;;;;;;;4969320;28;20658;-76
2023/07/24 06:02:08;;;;;;;;;;;;;;;;;;4953167;28;19929;-76
2023/07/24 06:04:54;;;;;;;;;;;;;;;;;;4962722;28;19981;-74
2023/07/24 06:07:41;;;;;;;;;;;;;;;;;;4968520;28;19933;-75
2023/07/24 06:10:27;;;;;;;;;;;;;;;;;;4969340;28;19929;-75
2023/07/24 06:13:14;;;;;;;;;;;;;;;;;;4972303;28;19925;-76
2023/07/24 06:16:00;;;;;;;;;;;;;;;;;;4975077;28;19949;-74
2023/07/24 06:18:47;;;;;;;;;;;;;;;;;;4954802;28;20389;-75
2023/07/24 06:21:34;;;;;;;;;;;;;;;;;;4963508;28;19924;-75
2023/07/24 06:24:21;;;;;;;;;;;;;;;;;;4949914;28;20309;-77
2023/07/24 06:27:07;;;;;;;;;;;;;;;;;;4986873;28;19941;-76
2023/07/24 06:29:54;;;;;;;;;;;;;;;;;;4964898;28;19926;-74
2023/07/24 06:32:40;;;;;;;;;;;;;;;;;;4967645;28;19944;-75
2023/07/24 06:35:27;;;;;;;;;;;;;;;;;;4960943;28;19922;-74
2023/07/24 06:38:13;;;;;;;;;;;;;;;;;;4972170;28;19922;-75
2023/07/24 06:41:00;;;;;;;;;;;;;;;;;;4955285;28;20381;-74
2023/07/24 06:43:46;;;;;;;;;;;;;;;;;;4957898;28;19937;-75
2023/07/24 06:46:33;;;;;;;;;;;;;;;;;;4959346;28;19934;-74
2023/07/24 06:49:19;;;;;;;;;;;;;;;;;;4967865;28;20294;-75
2023/07/24 06:52:05;;;;;;;;;;;;;;;;;;4953334;28;19922;-75
2023/07/24 06:54:52;;;;;;;;;;;;;;;;;;4967386;28;19928;-74
2023/07/24 06:57:38;;;;;;;;;;;;;;;;;;4969293;28;20342;-75
2023/07/24 07:00:26;;;;;;;;;;;;;;;;;;4960810;28;20374;-80
2023/07/24 07:03:13;;;;;;;;;;;;;;;;;;4969007;28;20101;-75
2023/07/24 07:06:00;;;;;;;;;;;;;;;;;;4971764;28;19922;-75
2023/07/24 07:08:46;;;;;;;;;;;;;;;;;;4966259;28;19930;-76
2023/07/24 07:11:33;;;;;;;;;;;;;;;;;;4970306;28;19932;-74
2023/07/24 07:14:19;;;;;;;;;;;;;;;;;;4967147;28;19929;-75
2023/07/24 07:17:05;;;;;;;;;;;;;;;;;;4971898;28;19940;-76
2023/07/24 07:19:52;;;;;;;;;;;;;;;;;;4964034;28;19929;-78
2023/07/24 07:22:38;;;;;;;;;;;;;;;;;;4962224;28;19918;-78
2023/07/24 07:25:25;;;;;;;;;;;;;;;;;;4968437;28;19930;-82
2023/07/24 07:28:11;;;;;;;;;;;;;;;;;;4960398;28;19918;-76
2023/07/24 07:30:58;;;;;;;;;;;;;;;;;;4962775;28;20255;-78
2023/07/24 07:33:44;;;;;;;;;;;;;;;;;;4961643;28;19948;-79
2023/07/24 07:36:31;;;;;;;;;;;;;;;;;;4941794;28;19922;-79
2023/07/24 07:39:17;;;;;;;;;;;;;;;;;;4972729;28;19922;-77
2023/07/24 07:42:04;;;;;;;;;;;;;;;;;;4973125;28;19918;-79
2023/07/24 07:44:50;;;;;;;;;;;;;;;;;;4945552;28;19930;-79
2023/07/24 07:47:37;;;;;;;;;;;;;;;;;;4970858;28;19941;-79
2023/07/24 07:50:23;;;;;;;;;;;;;;;;;;4974037;28;20305;-75
2023/07/24 07:53:10;;;;;;;;;;;;;;;;;;4961645;28;19927;-79
2023/07/24 07:55:57;;;;;;;;;;;;;;;;;;4963485;28;19922;-76
2023/07/24 07:58:43;;;;;;;;;;;;;;;;;;4968056;28;19948;-78
2023/07/24 08:01:30;;;;;;;;;;;;;;;;;;4968038;28;19922;-78
2023/07/24 08:04:18;;;;;;;;;;;;;;;;;;4966890;28;19937;-78
2023/07/24 08:07:04;;;;;;;;;;;;;;;;;;4950730;28;19926;-79
2023/07/24 08:09:51;;;;;;;;;;;;;;;;;;4974536;28;19922;-78
2023/07/24 08:12:37;;;;;;;;;;;;;;;;;;4968665;28;19923;-80
2023/07/24 08:15:24;;;;;;;;;;;;;;;;;;4968199;28;19926;-78
2023/07/24 08:18:10;;;;;;;;;;;;;;;;;;4972259;28;19929;-79
2023/07/24 08:20:57;;;;;;;;;;;;;;;;;;4972929;28;19922;-81
2023/07/24 08:23:43;;;;;;;;;;;;;;;;;;4963671;28;20364;-78
2023/07/24 08:26:30;;;;;;;;;;;;;;;;;;4968078;28;19928;-77
2023/07/24 08:29:16;;;;;;;;;;;;;;;;;;4966968;28;20491;-76
2023/07/24 08:32:03;;;;;;;;;;;;;;;;;;4970078;28;19926;-77
2023/07/24 08:34:49;;;;;;;;;;;;;;;;;;4967660;28;19926;-79
2023/07/24 08:37:36;;;;;;;;;;;;;;;;;;4969191;28;19926;-77
2023/07/24 08:40:22;;;;;;;;;;;;;;;;;;4972660;28;20839;-77
2023/07/24 08:43:09;;;;;;;;;;;;;;;;;;4970396;28;19949;-75
2023/07/24 08:45:55;;;;;;;;;;;;;;;;;;4967946;28;20289;-75
2023/07/24 08:48:42;;;;;;;;;;;;;;;;;;4965505;28;19921;-76
2023/07/24 08:51:28;;;;;;;;;;;;;;;;;;4961177;28;19929;-76
2023/07/24 08:54:15;;;;;;;;;;;;;;;;;;4945706;28;20442;-76
2023/07/24 08:57:01;;;;;;;;;;;;;;;;;;4965334;28;19930;-76
2023/07/24 08:59:47;;;;;;;;;;;;;;;;;;4971074;28;19927;-77
2023/07/24 09:02:34;;;;;;;;;;;;;;;;;;4961680;28;20275;-76
2023/07/24 09:05:20;;;;;;;;;;;;;;;;;;4964585;28;19937;-78
2023/07/24 09:08:07;;;;;;;;;;;;;;;;;;4970067;28;20393;-79
2023/07/24 09:10:53;;;;;;;;;;;;;;;;;;4964073;28;19926;-77
2023/07/24 09:13:40;;;;;;;;;;;;;;;;;;4962176;28;19918;-80
2023/07/24 09:16:26;;;;;;;;;;;;;;;;;;4965621;28;19998;-79
2023/07/24 09:19:13;;;;;;;;;;;;;;;;;;4968803;28;19926;-77
2023/07/24 09:21:59;;;;;;;;;;;;;;;;;;4971033;28;19921;-78
2023/07/24 09:24:46;;;;;;;;;;;;;;;;;;4964152;28;19930;-77
2023/07/24 09:27:32;;;;;;;;;;;;;;;;;;4963855;28;19922;-79
2023/07/24 09:30:23;;;;;;;;;;;;;;;;;;4963665;28;20508;-75
2023/07/24 09:33:09;;;;;;;;;;;;;;;;;;4966307;28;19929;-77
2023/07/24 09:35:56;;;;;;;;;;;;;;;;;;4975046;28;19944;-78
2023/07/24 09:38:42;;;;;;;;;;;;;;;;;;4970626;28;19933;-78
2023/07/24 09:41:29;;;;;;;;;;;;;;;;;;4965660;28;19923;-77
2023/07/24 09:44:15;;;;;;;;;;;;;;;;;;4974548;28;19968;-78
2023/07/24 09:47:02;;;;;;;;;;;;;;;;;;4949204;28;19936;-78
2023/07/24 09:49:48;;;;;;;;;;;;;;;;;;4968313;28;20019;-79
2023/07/24 09:52:35;;;;;;;;;;;;;;;;;;4960648;28;20317;-76
2023/07/24 09:55:21;;;;;;;;;;;;;;;;;;4958459;28;19921;-75
2023/07/24 09:58:08;;;;;;;;;;;;;;;;;;4962505;28;19937;-76
2023/07/24 10:00:54;;;;;;;;;;;;;;;;;;4969606;28;19922;-77
2023/07/24 10:03:41;;;;;;;;;;;;;;;;;;4962312;28;19938;-75
2023/07/24 10:06:29;;;;;;;;;;;;;;;;;;4974746;28;19922;-74
2023/07/24 10:09:15;;;;;;;;;;;;;;;;;;4970839;28;19926;-75
2023/07/24 10:12:02;;;;;;;;;;;;;;;;;;4966805;28;19922;-73
2023/07/24 10:14:48;;;;;;;;;;;;;;;;;;4968259;28;19918;-74
2023/07/24 10:17:35;;;;;;;;;;;;;;;;;;4973325;28;19922;-74
2023/07/24 10:20:22;;;;;;;;;;;;;;;;;;4968664;28;20578;-73
2023/07/24 10:23:09;;;;;;;;;;;;;;;;;;4959894;28;19922;-76
2023/07/24 10:25:55;;;;;;;;;;;;;;;;;;4957969;28;19934;-76
2023/07/24 10:28:42;;;;;;;;;;;;;;;;;;4946610;28;19929;-77
2023/07/24 10:31:29;;;;;;;;;;;;;;;;;;4952887;28;19926;-75
2023/07/24 10:34:15;;;;;;;;;;;;;;;;;;4951714;28;19938;-75
2023/07/24 10:37:02;;;;;;;;;;;;;;;;;;4957569;28;19922;-75
2023/07/24 10:39:48;;;;;;;;;;;;;;;;;;4959077;28;19925;-76
2023/07/24 10:42:35;;;;;;;;;;;;;;;;;;4950100;28;19923;-77
2023/07/24 10:45:21;;;;;;;;;;;;;;;;;;4965826;28;19937;-75
2023/07/24 10:48:11;;;;;;;;;;;;;;;;;;4965021;28;19929;-74
2023/07/24 10:50:57;;;;;;;;;;;;;;;;;;4951943;28;19922;-75
2023/07/24 10:53:44;;;;;;;;;;;;;;;;;;4957220;28;19929;-74
2023/07/24 10:56:30;;;;;;;;;;;;;;;;;;4960630;28;19926;-75
2023/07/24 10:59:17;;;;;;;;;;;;;;;;;;4965246;28;19929;-77
2023/07/24 11:02:04;;;;;;;;;;;;;;;;;;4964420;28;19926;-75
2023/07/24 11:04:50;;;;;;;;;;;;;;;;;;4968845;28;19956;-75
2023/07/24 11:07:37;;;;;;;;;;;;;;;;;;4960845;28;20378;-75
2023/07/24 11:10:24;;;;;;;;;;;;;;;;;;4966508;28;19949;-75
2023/07/24 11:13:11;;;;;;;;;;;;;;;;;;4966702;28;19922;-74
2023/07/24 11:15:57;;;;;;;;;;;;;;;;;;4965608;28;19922;-74
2023/07/24 11:18:44;;;;;;;;;;;;;;;;;;4952541;28;19949;-75
2023/07/24 11:21:31;;;;;;;;;;;;;;;;;;4957607;28;19929;-74
2023/07/24 11:24:17;;;;;;;;;;;;;;;;;;4969297;28;19937;-74
2023/07/24 11:27:04;;;;;;;;;;;;;;;;;;4968217;28;19929;-74
2023/07/24 11:29:50;;;;;;;;;;;;;;;;;;4959897;28;19949;-72
2023/07/24 11:32:37;;;;;;;;;;;;;;;;;;4969625;28;20410;-74
2023/07/24 11:35:25;;;;;;;;;;;;;;;;;;4972542;28;19933;-74
2023/07/24 11:38:11;;;;;;;;;;;;;;;;;;4952819;28;19918;-74
2023/07/24 11:40:58;;;;;;;;;;;;;;;;;;4967023;28;20429;-75
2023/07/24 11:43:44;;;;;;;;;;;;;;;;;;4972864;28;19922;-74
2023/07/24 11:46:32;;;;;;;;;;;;;;;;;;4964446;28;19933;-74
2023/07/24 11:49:18;;;;;;;;;;;;;;;;;;4962898;28;20016;-74
2023/07/24 11:52:05;;;;;;;;;;;;;;;;;;4932917;28;19919;-72
2023/07/24 11:54:51;;;;;;;;;;;;;;;;;;4964105;28;19918;-74
2023/07/24 11:57:37;;;;;;;;;;;;;;;;;;4946477;28;20771;-74
2023/07/24 12:00:24;;;;;;;;;;;;;;;;;;4932489;28;20559;-73
2023/07/24 12:03:10;;;;;;;;;;;;;;;;;;4971506;28;19918;-74
2023/07/24 12:05:57;;;;;;;;;;;;;;;;;;4957224;28;20842;-74
2023/07/24 12:08:43;;;;;;;;;;;;;;;;;;4955847;28;19927;-74
2023/07/24 12:11:30;;;;;;;;;;;;;;;;;;4969628;28;19945;-74
2023/07/24 12:14:16;;;;;;;;;;;;;;;;;;4970981;28;19925;-74
2023/07/24 12:17:03;;;;;;;;;;;;;;;;;;4966677;28;19918;-74
2023/07/24 12:19:49;;;;;;;;;;;;;;;;;;4961622;28;19918;-74
2023/07/24 12:22:36;;;;;;;;;;;;;;;;;;4945868;28;19926;-74
2023/07/24 12:25:22;;;;;;;;;;;;;;;;;;4955065;28;19927;-74
2023/07/24 12:28:09;;;;;;;;;;;;;;;;;;4952078;28;19918;-74
2023/07/24 12:30:55;;;;;;;;;;;;;;;;;;4970801;28;19928;-74
2023/07/24 12:33:42;;;;;;;;;;;;;;;;;;4970403;28;19923;-75
2023/07/24 12:36:28;;;;;;;;;;;;;;;;;;4972491;28;19925;-74
2023/07/24 12:39:15;;;;;;;;;;;;;;;;;;4970309;28;19945;-76
2023/07/24 12:42:01;;;;;;;;;;;;;;;;;;4967344;28;19929;-74
2023/07/24 12:44:48;;;;;;;;;;;;;;;;;;4964735;28;19937;-74
2023/07/24 12:47:34;;;;;;;;;;;;;;;;;;4965251;28;20298;-75
2023/07/24 12:50:23;;;;;;;;;;;;;;;;;;4966906;28;19918;-75
2023/07/24 12:53:09;;;;;;;;;;;;;;;;;;4969400;28;20368;-73
2023/07/24 12:55:56;;;;;;;;;;;;;;;;;;4970180;28;19927;-76
2023/07/24 12:58:44;;;;;;;;;;;;;;;;;;4969214;28;19937;-73
2023/07/24 13:01:30;;;;;;;;;;;;;;;;;;4970123;28;19922;-74
2023/07/24 13:04:17;;;;;;;;;;;;;;;;;;4968214;28;19945;-75
2023/07/24 13:07:04;;;;;;;;;;;;;;;;;;4969251;28;19918;-75
2023/07/24 13:09:51;;;;;;;;;;;;;;;;;;4961761;28;19948;-74
2023/07/24 13:12:37;;;;;;;;;;;;;;;;;;4957821;28;19918;-74
2023/07/24 13:15:24;;;;;;;;;;;;;;;;;;4971259;28;19922;-73
2023/07/24 13:18:13;;;;;;;;;;;;;;;;;;4958999;28;19922;-75
2023/07/24 13:21:00;;;;;;;;;;;;;;;;;;4950696;28;20370;-74
2023/07/24 13:23:47;;;;;;;;;;;;;;;;;;4952135;28;19922;-73
2023/07/24 13:26:34;;;;;;;;;;;;;;;;;;4942207;28;20459;-74
2023/07/24 13:29:20;;;;;;;;;;;;;;;;;;4972375;28;19918;-74
2023/07/24 13:32:07;;;;;;;;;;;;;;;;;;4948344;28;19928;-75
2023/07/24 13:34:53;;;;;;;;;;;;;;;;;;4965099;28;19928;-74
2023/07/24 13:37:40;;;;;;;;;;;;;;;;;;4971269;28;20293;-73
2023/07/24 13:40:26;;;;;;;;;;;;;;;;;;4968292;28;19990;-74
2023/07/24 13:43:13;;;;;;;;;;;;;;;;;;4970747;28;19929;-74
2023/07/24 13:45:59;;;;;;;;;;;;;;;;;;4955675;28;19931;-75
2023/07/24 13:48:46;;;;;;;;;;;;;;;;;;4957167;28;20408;-74
2023/07/24 13:51:32;;;;;;;;;;;;;;;;;;4944193;28;19923;-74
2023/07/24 13:54:19;;;;;;;;;;;;;;;;;;4964184;28;19929;-74
2023/07/24 13:57:08;;;;;;;;;;;;;;;;;;4954782;28;19930;-74
2023/07/24 13:59:54;;;;;;;;;;;;;;;;;;4965707;28;20386;-75
2023/07/24 14:02:41;;;;;;;;;;;;;;;;;;4968293;28;19922;-75
2023/07/24 14:05:28;;;;;;;;;;;;;;;;;;4968904;28;19929;-73
2023/07/24 14:08:15;;;;;;;;;;;;;;;;;;4969352;28;19932;-75
2023/07/24 14:11:01;;;;;;;;;;;;;;;;;;4971641;28;19933;-74
2023/07/24 14:13:48;;;;;;;;;;;;;;;;;;4966390;28;19929;-74
2023/07/24 14:16:34;;;;;;;;;;;;;;;;;;4964498;28;19926;-74
2023/07/24 14:19:23;;;;;;;;;;;;;;;;;;4959250;28;19919;-73
2023/07/24 14:22:09;;;;;;;;;;;;;;;;;;4956346;28;19918;-75
2023/07/24 14:24:56;;;;;;;;;;;;;;;;;;4963653;28;19929;-73
2023/07/24 14:27:42;;;;;;;;;;;;;;;;;;4966524;28;19921;-75
2023/07/24 14:30:29;;;;;;;;;;;;;;;;;;4965961;28;19922;-74
2023/07/24 14:33:15;;;;;;;;;;;;;;;;;;4954143;28;19923;-74
2023/07/24 14:36:02;;;;;;;;;;;;;;;;;;4949398;28;19929;-74
2023/07/24 14:38:50;;;;;;;;;;;;;;;;;;4955475;28;19952;-73
2023/07/24 14:41:36;;;;;;;;;;;;;;;;;;4967377;28;19929;-73
2023/07/24 14:44:23;;;;;;;;;;;;;;;;;;4964792;28;20231;-75
2023/07/24 14:47:10;;;;;;;;;;;;;;;;;;4961789;28;19941;-74
2023/07/24 14:49:56;;;;;;;;;;;;;;;;;;4951044;28;19928;-74
2023/07/24 14:52:43;;;;;;;;;;;;;;;;;;4955463;28;19918;-75
2023/07/24 14:55:29;;;;;;;;;;;;;;;;;;4955034;28;19925;-74
2023/07/24 14:58:16;;;;;;;;;;;;;;;;;;4956926;28;19930;-75
2023/07/24 15:01:02;;;;;;;;;;;;;;;;;;4965803;28;19922;-74
2023/07/24 15:03:49;;;;;;;;;;;;;;;;;;4971889;28;20010;-74
2023/07/24 15:06:35;;;;;;;;;;;;;;;;;;4964465;28;19930;-74
2023/07/24 15:09:22;;;;;;;;;;;;;;;;;;4966937;28;19922;-75
2023/07/24 15:12:08;;;;;;;;;;;;;;;;;;4959821;28;19931;-73
2023/07/24 15:14:55;;;;;;;;;;;;;;;;;;4958967;28;19937;-76
2023/07/24 15:17:41;;;;;;;;;;;;;;;;;;4966737;28;19926;-75
2023/07/24 15:20:28;;;;;;;;;;;;;;;;;;4969019;28;19918;-76
2023/07/24 15:23:14;;;;;;;;;;;;;;;;;;4962172;28;19926;-74
2023/07/24 15:26:01;;;;;;;;;;;;;;;;;;4962640;28;19937;-74
2023/07/24 15:28:47;;;;;;;;;;;;;;;;;;4965140;28;19929;-75
2023/07/24 15:31:36;;;;;;;;;;;;;;;;;;4954282;28;20441;-73
2023/07/24 15:34:23;;;;;;;;;;;;;;;;;;4978101;28;19918;-74
2023/07/24 15:37:12;;;;;;;;;;;;;;;;;;4968287;28;20428;-73
2023/07/24 15:39:59;;;;;;;;;;;;;;;;;;4948744;28;19918;-74
2023/07/24 15:42:46;;;;;;;;;;;;;;;;;;4956788;28;19922;-73
2023/07/24 15:45:33;;;;;;;;;;;;;;;;;;4960462;28;19950;-73
2023/07/24 15:48:19;;;;;;;;;;;;;;;;;;4970540;28;19922;-73
2023/07/24 15:51:06;;;;;;;;;;;;;;;;;;4964284;28;19929;-73
2023/07/24 15:53:52;;;;;;;;;;;;;;;;;;4966609;28;19922;-73
2023/07/24 15:56:39;;;;;;;;;;;;;;;;;;4966522;28;19930;-74
2023/07/24 15:59:25;;;;;;;;;;;;;;;;;;4947154;28;19930;-73
2023/07/24 16:02:12;;;;;;;;;;;;;;;;;;4963607;28;20293;-74
2023/07/24 16:04:58;;;;;;;;;;;;;;;;;;4967808;28;19931;-73
2023/07/24 16:07:46;;;;;;;;;;;;;;;;;;4960416;28;19922;-73
2023/07/24 16:10:32;;;;;;;;;;;;;;;;;;4963354;28;19944;-74
2023/07/24 16:13:19;;;;;;;;;;;;;;;;;;4977806;28;20363;-73
2023/07/24 16:16:05;;;;;;;;;;;;;;;;;;4971964;28;19918;-73
2023/07/24 16:18:52;;;;;;;;;;;;;;;;;;4969319;28;19922;-73
2023/07/24 16:21:38;;;;;;;;;;;;;;;;;;4959315;28;19925;-74
2023/07/24 16:24:25;;;;;;;;;;;;;;;;;;4962964;28;19933;-74
2023/07/24 16:27:11;;;;;;;;;;;;;;;;;;4967648;28;19925;-74
2023/07/24 16:29:58;;;;;;;;;;;;;;;;;;4967741;28;20294;-75
2023/07/24 16:32:44;;;;;;;;;;;;;;;;;;4950234;28;19933;-73
2023/07/24 16:35:31;;;;;;;;;;;;;;;;;;4956721;28;20301;-75
2023/07/24 16:38:17;;;;;;;;;;;;;;;;;;4966066;28;20453;-74
2023/07/24 16:41:04;;;;;;;;;;;;;;;;;;4942702;28;19922;-73
2023/07/24 16:43:50;;;;;;;;;;;;;;;;;;4966681;28;19965;-75
2023/07/24 16:46:37;;;;;;;;;;;;;;;;;;4973325;28;19930;-74
2023/07/24 16:49:23;;;;;;;;;;;;;;;;;;4966202;28;19945;-74
2023/07/24 16:52:10;;;;;;;;;;;;;;;;;;4955466;28;19919;-74
2023/07/24 16:54:56;;;;;;;;;;;;;;;;;;4959455;28;19933;-74
2023/07/24 16:57:44;;;;;;;;;;;;;;;;;;4965869;28;19934;-78
2023/07/24 17:00:30;;;;;;;;;;;;;;;;;;4972835;28;20379;-79
2023/07/24 17:03:18;;;;;;;;;;;;;;;;;;4962860;28;23984;-79
2023/07/24 17:06:05;;;;;;;;;;;;;;;;;;4957865;28;20593;-79
2023/07/24 17:08:51;;;;;;;;;;;;;;;;;;4955861;28;19929;-79
2023/07/24 17:11:38;;;;;;;;;;;;;;;;;;4965319;28;19954;-80
2023/07/24 17:14:24;;;;;;;;;;;;;;;;;;4957631;28;20397;-77
2023/07/24 17:17:11;;;;;;;;;;;;;;;;;;4953436;28;19914;-78
2023/07/24 17:19:57;;;;;;;;;;;;;;;;;;4967547;28;19922;-77
2023/07/24 17:22:44;;;;;;;;;;;;;;;;;;4961474;28;19918;-76
2023/07/24 17:25:30;;;;;;;;;;;;;;;;;;4962455;28;19939;-78
2023/07/24 17:28:17;;;;;;;;;;;;;;;;;;4968653;28;19929;-76
2023/07/24 17:31:03;;;;;;;;;;;;;;;;;;4968989;28;19928;-75
2023/07/24 17:33:50;;;;;;;;;;;;;;;;;;4964226;28;19922;-75
2023/07/24 17:36:36;;;;;;;;;;;;;;;;;;4958884;28;19925;-76
2023/07/24 17:39:23;;;;;;;;;;;;;;;;;;4964413;28;19922;-75
2023/07/24 17:42:09;;;;;;;;;;;;;;;;;;4961640;28;19925;-75
2023/07/24 17:44:56;;;;;;;;;;;;;;;;;;4959773;28;20697;-75
2023/07/24 17:47:42;;;;;;;;;;;;;;;;;;4956295;28;19933;-76
2023/07/24 17:50:29;;;;;;;;;;;;;;;;;;4962558;28;19923;-73
2023/07/24 17:53:15;;;;;;;;;;;;;;;;;;4959392;28;19918;-76
2023/07/24 17:56:03;;;;;;;;;;;;;;;;;;4956034;28;19928;-74
2023/07/24 17:58:50;;;;;;;;;;;;;;;;;;4958342;28;19930;-74
2023/07/24 18:01:36;;;;;;;;;;;;;;;;;;4960964;28;19919;-74
2023/07/24 18:04:23;;;;;;;;;;;;;;;;;;4962795;28;19929;-75
2023/07/24 18:07:09;;;;;;;;;;;;;;;;;;4948823;28;19930;-75
2023/07/24 18:09:56;;;;;;;;;;;;;;;;;;4955780;28;19925;-75
2023/07/24 18:12:42;;;;;;;;;;;;;;;;;;4962660;28;19944;-75
2023/07/24 18:15:29;;;;;;;;;;;;;;;;;;4955368;28;19914;-74
2023/07/24 18:18:15;;;;;;;;;;;;;;;;;;4974087;28;20389;-73
2023/07/24 18:21:03;;;;;;;;;;;;;;;;;;4959874;28;19928;-74
2023/07/24 18:23:50;;;;;;;;;;;;;;;;;;4960711;28;20880;-76
2023/07/24 18:26:36;;;;;;;;;;;;;;;;;;4956493;28;19930;-76
2023/07/24 18:29:23;;;;;;;;;;;;;;;;;;4962139;28;19940;-75
2023/07/24 18:32:09;;;;;;;;;;;;;;;;;;4956507;28;20293;-74
2023/07/24 18:34:56;;;;;;;;;;;;;;;;;;4962897;28;19925;-75
2023/07/24 18:37:42;;;;;;;;;;;;;;;;;;4960510;28;20403;-75
2023/07/24 18:40:29;;;;;;;;;;;;;;;;;;4959893;28;19946;-75
2023/07/24 18:43:16;;;;;;;;;;;;;;;;;;4963299;28;20484;-74
2023/07/24 18:46:02;;;;;;;;;;;;;;;;;;4959467;28;20275;-75
2023/07/24 18:48:49;;;;;;;;;;;;;;;;;;4956401;28;20350;-74
2023/07/24 18:51:35;;;;;;;;;;;;;;;;;;4958007;28;19930;-77
2023/07/24 18:54:22;;;;;;;;;;;;;;;;;;4955244;28;19952;-75
2023/07/24 18:57:09;;;;;;;;;;;;;;;;;;4960378;28;19924;-76